Time;durP1;ratioP1;P1;durP2;ratioP2;P2;SDS_P1;SDS_P2;PMS_P1;PMS_P2;Temp;Humidity;BMP_temperature;BMP_pressure;BME280_temperature;BME280_humidity;BME280_pressure;Samples;Min_cycle;Max_cycle;Signal;HPM_P1;HPM_P2
2022/05/20 00:00:31;;;;;;;4.83;4.30;;;;;;;;;;5001584;28;20902;-85
2022/05/20 00:02:57;;;;;;;10.83;4.90;;;;;;;;;;5018659;28;20425;-85
2022/05/20 00:05:23;;;;;;;11.23;5.20;;;;;;;;;;5019194;28;20431;-84
2022/05/20 00:07:49;;;;;;;10.70;6.20;;;;;;;;;;5029490;28;20403;-84
2022/05/20 00:10:17;;;;;;;7.20;4.47;;;;;;;;;;5031531;28;20475;-85
2022/05/20 00:12:43;;;;;;;7.13;4.30;;;;;;;;;;5027662;28;20540;-86
2022/05/20 00:15:10;;;;;;;6.80;4.73;;;;;;;;;;5026993;28;20426;-85
2022/05/20 00:17:36;;;;;;;12.63;4.70;;;;;;;;;;5026399;28;20400;-85
2022/05/20 00:20:06;;;;;;;17.00;4.57;;;;;;;;;;5026595;28;20403;-85
2022/05/20 00:22:32;;;;;;;5.93;3.90;;;;;;;;;;5026531;28;20438;-85
2022/05/20 00:27:43;;;;;;;12.17;4.27;;;;;;;;;;5026732;28;20421;-85
2022/05/20 00:30:09;;;;;;;7.70;4.20;;;;;;;;;;5026407;28;20478;-85
2022/05/20 00:32:36;;;;;;;9.60;4.30;;;;;;;;;;5025924;28;20530;-85
2022/05/20 00:35:02;;;;;;;7.83;4.70;;;;;;;;;;5026504;28;20431;-85
2022/05/20 00:37:28;;;;;;;9.30;4.40;;;;;;;;;;5026187;28;20402;-85
2022/05/20 00:39:54;;;;;;;5.57;4.57;;;;;;;;;;5009065;28;20426;-85
2022/05/20 00:42:20;;;;;;;8.83;4.20;;;;;;;;;;5025651;28;20442;-85
2022/05/20 00:44:46;;;;;;;7.43;4.30;;;;;;;;;;5009030;28;20415;-85
2022/05/20 00:47:13;;;;;;;7.07;4.60;;;;;;;;;;5025589;28;20454;-85
2022/05/20 00:49:41;;;;;;;4.77;4.20;;;;;;;;;;5026362;28;20408;-84
2022/05/20 00:52:09;;;;;;;7.90;6.13;;;;;;;;;;5025177;28;20455;-85
2022/05/20 00:54:38;;;;;;;9.37;5.43;;;;;;;;;;5025348;28;20412;-85
2022/05/20 00:57:07;;;;;;;5.03;4.47;;;;;;;;;;5007430;28;20451;-85
2022/05/20 00:59:34;;;;;;;6.23;4.23;;;;;;;;;;5024948;28;20452;-85
2022/05/20 01:02:04;;;;;;;5.50;4.57;;;;;;;;;;5025001;28;20404;-84
2022/05/20 01:04:30;;;;;;;5.60;4.07;;;;;;;;;;5024072;28;20461;-85
2022/05/20 01:06:58;;;;;;;7.20;4.10;;;;;;;;;;5002672;28;20834;-84
2022/05/20 01:09:24;;;;;;;9.70;4.40;;;;;;;;;;5014166;28;20447;-83
2022/05/20 01:11:50;;;;;;;6.63;4.47;;;;;;;;;;5013820;28;20457;-83
2022/05/20 01:14:26;;;;;;;7.90;4.50;;;;;;;;;;4996901;28;20412;-83
2022/05/20 01:16:52;;;;;;;10.50;3.77;;;;;;;;;;5014963;28;20438;-83
2022/05/20 01:19:42;;;;;;;5.00;4.00;;;;;;;;;;5014582;28;20399;-83
2022/05/20 01:22:09;;;;;;;6.10;3.70;;;;;;;;;;4999126;28;20486;-83
2022/05/20 01:24:35;;;;;;;4.77;4.27;;;;;;;;;;5014814;28;20442;-83
2022/05/20 01:27:01;;;;;;;9.23;4.30;;;;;;;;;;5015206;28;20443;-83
2022/05/20 01:29:27;;;;;;;7.20;4.60;;;;;;;;;;5015673;28;20423;-83
2022/05/20 01:31:53;;;;;;;8.50;5.10;;;;;;;;;;5015460;28;20446;-83
2022/05/20 01:34:20;;;;;;;5.73;4.60;;;;;;;;;;5015540;28;20404;-83
2022/05/20 01:36:46;;;;;;;5.10;4.40;;;;;;;;;;5015406;28;20419;-84
2022/05/20 01:39:12;;;;;;;6.63;4.30;;;;;;;;;;5024065;28;20426;-84
2022/05/20 01:41:38;;;;;;;6.07;4.90;;;;;;;;;;5019782;28;20419;-83
2022/05/20 01:44:22;;;;;;;6.10;3.80;;;;;;;;;;5011636;28;20431;-83
2022/05/20 01:47:05;;;;;;;4.43;3.30;;;;;;;;;;5040704;28;20533;-84
2022/05/20 01:49:31;;;;;;;5.53;3.70;;;;;;;;;;5042560;28;20387;-84
2022/05/20 01:52:15;;;;;;;4.30;3.53;;;;;;;;;;5043951;28;20554;-84
2022/05/20 01:55:00;;;;;;;4.13;3.30;;;;;;;;;;5043270;28;20477;-84
2022/05/20 01:57:27;;;;;;;5.40;3.27;;;;;;;;;;5043319;28;20394;-84
2022/05/20 02:00:13;;;;;;;6.17;3.20;;;;;;;;;;5042465;28;20402;-84
2022/05/20 02:02:56;;;;;;;4.20;3.20;;;;;;;;;;5042444;28;20510;-84
2022/05/20 02:05:24;;;;;;;6.87;3.50;;;;;;;;;;5025141;28;20430;-84
2022/05/20 02:07:52;;;;;;;3.67;3.17;;;;;;;;;;5025331;28;20429;-84
2022/05/20 02:10:23;;;;;;;5.27;2.93;;;;;;;;;;5042291;28;20409;-84
2022/05/20 02:12:51;;;;;;;4.20;3.10;;;;;;;;;;5042453;28;20521;-84
2022/05/20 02:15:21;;;;;;;4.73;3.30;;;;;;;;;;5042573;28;20430;-84
2022/05/20 02:17:49;;;;;;;4.90;3.30;;;;;;;;;;5046996;28;20425;-84
2022/05/20 02:20:21;;;;;;;4.13;3.30;;;;;;;;;;5050174;28;20406;-84
2022/05/20 02:22:50;;;;;;;5.50;3.10;;;;;;;;;;5030384;28;20513;-84
2022/05/20 02:25:20;;;;;;;4.10;2.83;;;;;;;;;;5046199;28;20430;-84
2022/05/20 02:27:48;;;;;;;5.70;3.50;;;;;;;;;;5046194;28;20810;-83
2022/05/20 02:30:16;;;;;;;3.90;3.37;;;;;;;;;;5046328;28;20415;-84
2022/05/20 02:32:48;;;;;;;4.27;3.53;;;;;;;;;;5049023;28;20450;-84
2022/05/20 02:35:14;;;;;;;3.70;2.83;;;;;;;;;;5049338;28;20441;-84
2022/05/20 02:37:40;;;;;;;4.07;3.00;;;;;;;;;;5049339;28;20391;-84
2022/05/20 02:40:08;;;;;;;3.70;2.87;;;;;;;;;;5049136;28;20469;-84
2022/05/20 02:42:34;;;;;;;6.20;3.27;;;;;;;;;;5029081;28;20532;-84
2022/05/20 02:45:00;;;;;;;4.80;3.70;;;;;;;;;;5045700;28;20768;-84
2022/05/20 02:47:31;;;;;;;4.40;3.10;;;;;;;;;;5045837;28;20410;-84
2022/05/20 02:49:57;;;;;;;6.10;3.27;;;;;;;;;;5046179;28;20397;-84
2022/05/20 02:52:23;;;;;;;3.87;3.13;;;;;;;;;;5045222;28;20454;-84
2022/05/20 02:54:50;;;;;;;3.80;3.03;;;;;;;;;;5045519;28;20506;-84
2022/05/20 02:57:16;;;;;;;5.70;3.60;;;;;;;;;;5045400;28;20501;-84
2022/05/20 03:05:13;;;;;;;3.50;3.00;;;;;;;;;;5045767;28;20426;-84
2022/05/20 03:07:39;;;;;;;5.87;2.90;;;;;;;;;;5045091;28;20882;-84
2022/05/20 03:10:05;;;;;;;3.63;3.03;;;;;;;;;;5045378;28;20415;-84
2022/05/20 03:12:32;;;;;;;3.90;3.27;;;;;;;;;;5045473;28;20454;-84
2022/05/20 03:14:58;;;;;;;3.60;2.93;;;;;;;;;;5045075;28;20414;-84
2022/05/20 03:17:24;;;;;;;7.43;3.67;;;;;;;;;;5045071;28;20410;-84
2022/05/20 03:19:50;;;;;;;6.80;3.07;;;;;;;;;;5044833;28;20399;-84
2022/05/20 03:22:16;;;;;;;4.93;2.63;;;;;;;;;;5039594;28;20430;-84
2022/05/20 03:24:42;;;;;;;5.17;3.63;;;;;;;;;;5045248;28;20407;-84
2022/05/20 03:27:08;;;;;;;3.27;2.87;;;;;;;;;;5026864;28;20849;-84
2022/05/20 03:29:34;;;;;;;3.47;3.13;;;;;;;;;;5043582;28;20421;-84
2022/05/20 03:32:01;;;;;;;4.93;3.33;;;;;;;;;;5025301;28;20461;-83
2022/05/20 03:34:27;;;;;;;4.73;3.10;;;;;;;;;;5042283;28;20421;-84
2022/05/20 03:36:53;;;;;;;4.33;3.10;;;;;;;;;;5043300;28;20418;-83
2022/05/20 03:39:20;;;;;;;4.37;2.93;;;;;;;;;;5044703;28;20415;-84
2022/05/20 03:41:47;;;;;;;6.07;3.67;;;;;;;;;;5025393;28;20596;-84
2022/05/20 03:44:16;;;;;;;4.50;2.90;;;;;;;;;;5025753;28;20529;-84
2022/05/20 03:46:44;;;;;;;3.77;3.00;;;;;;;;;;5043063;28;20428;-84
2022/05/20 03:49:11;;;;;;;4.87;3.13;;;;;;;;;;5042786;28;20443;-84
2022/05/20 03:51:37;;;;;;;3.40;3.00;;;;;;;;;;5042291;28;20607;-84
2022/05/20 03:54:04;;;;;;;3.77;3.00;;;;;;;;;;5041542;28;20757;-84
2022/05/20 03:56:30;;;;;;;4.53;3.50;;;;;;;;;;5025649;28;20529;-85
2022/05/20 03:58:56;;;;;;;9.40;3.53;;;;;;;;;;5040961;28;20456;-83
2022/05/20 04:04:07;;;;;;;6.17;3.00;;;;;;;;;;5044850;28;20397;-84
2022/05/20 04:06:33;;;;;;;4.40;3.00;;;;;;;;;;5042501;28;20596;-84
2022/05/20 04:08:59;;;;;;;4.87;2.87;;;;;;;;;;5043700;28;20409;-84
2022/05/20 04:11:28;;;;;;;5.30;3.80;;;;;;;;;;5044003;28;20421;-84
2022/05/20 04:13:54;;;;;;;6.90;3.60;;;;;;;;;;5043247;28;20403;-84
2022/05/20 04:16:20;;;;;;;3.10;2.63;;;;;;;;;;5024565;28;20427;-84
2022/05/20 04:18:46;;;;;;;5.83;3.00;;;;;;;;;;5044849;28;20466;-84
2022/05/20 04:21:13;;;;;;;5.40;2.93;;;;;;;;;;5044147;28;20429;-84
2022/05/20 04:23:40;;;;;;;5.03;3.47;;;;;;;;;;5044281;28;20402;-84
2022/05/20 04:26:06;;;;;;;3.90;2.80;;;;;;;;;;5062026;23;20542;-86
2022/05/20 04:28:32;;;;;;;5.33;3.20;;;;;;;;;;5058424;28;20781;-85
2022/05/20 04:31:00;;;;;;;5.63;3.60;;;;;;;;;;5059667;28;20492;-85
2022/05/20 04:33:27;;;;;;;6.60;3.40;;;;;;;;;;5058725;28;20826;-85
2022/05/20 04:35:53;;;;;;;4.00;2.77;;;;;;;;;;5059759;28;20432;-84
2022/05/20 04:38:20;;;;;;;3.50;2.73;;;;;;;;;;5040982;28;20410;-86
2022/05/20 04:49:06;;;;;;;5.20;2.87;;;;;;;;;;5058841;28;20474;-86
2022/05/20 04:51:35;;;;;;;4.07;3.20;;;;;;;;;;5041340;28;20453;-85
2022/05/20 04:56:47;;;;;;;6.30;4.17;;;;;;;;;;5059072;28;20416;-85
2022/05/20 04:59:13;;;;;;;5.57;3.00;;;;;;;;;;5058678;28;20389;-85
2022/05/20 05:01:40;;;;;;;4.80;3.10;;;;;;;;;;5059506;28;20409;-87
2022/05/20 05:04:06;;;;;;;5.87;3.27;;;;;;;;;;5058802;28;20406;-87
2022/05/20 05:06:32;;;;;;;5.90;3.23;;;;;;;;;;5058707;28;20428;-86
2022/05/20 05:08:58;;;;;;;5.00;3.20;;;;;;;;;;5058556;28;20406;-85
2022/05/20 05:11:24;;;;;;;4.93;2.70;;;;;;;;;;5058332;28;20424;-86
2022/05/20 05:13:50;;;;;;;4.07;3.60;;;;;;;;;;5042929;28;20420;-84
2022/05/20 05:16:16;;;;;;;3.90;3.10;;;;;;;;;;5044015;28;20425;-85
2022/05/20 05:18:42;;;;;;;3.47;3.17;;;;;;;;;;5059427;28;20401;-85
2022/05/20 05:21:08;;;;;;;4.83;2.50;;;;;;;;;;5044517;28;20410;-85
2022/05/20 05:23:34;;;;;;;4.13;3.03;;;;;;;;;;5059052;28;20501;-86
2022/05/20 05:26:00;;;;;;;2.73;2.50;;;;;;;;;;5041767;28;20472;-86
2022/05/20 05:28:26;;;;;;;6.33;3.20;;;;;;;;;;5042455;28;20393;-86
2022/05/20 05:30:53;;;;;;;8.67;3.47;;;;;;;;;;5060157;28;20478;-85
2022/05/20 05:33:20;;;;;;;3.73;3.17;;;;;;;;;;5059833;28;20457;-86
2022/05/20 05:35:46;;;;;;;5.03;3.03;;;;;;;;;;5060880;28;20405;-86
2022/05/20 05:38:13;;;;;;;6.17;2.40;;;;;;;;;;5064569;28;20463;-86
2022/05/20 05:40:39;;;;;;;3.27;2.60;;;;;;;;;;5045451;28;20723;-85
2022/05/20 05:43:05;;;;;;;3.70;2.87;;;;;;;;;;5062896;28;20410;-87
2022/05/20 05:45:33;;;;;;;3.70;2.57;;;;;;;;;;5062012;28;20769;-87
2022/05/20 05:48:00;;;;;;;4.57;2.50;;;;;;;;;;5059316;28;20393;-87
2022/05/20 05:50:26;;;;;;;4.57;2.40;;;;;;;;;;5060472;28;20390;-87
2022/05/20 05:52:56;;;;;;;5.23;2.83;;;;;;;;;;5063329;28;20456;-85
2022/05/20 05:55:23;;;;;;;3.80;3.20;;;;;;;;;;5045033;28;20424;-87
2022/05/20 05:57:49;;;;;;;6.10;3.50;;;;;;;;;;5062627;28;20506;-86
2022/05/20 06:00:15;;;;;;;4.30;3.00;;;;;;;;;;5062368;28;20414;-87
2022/05/20 06:02:41;;;;;;;7.13;2.70;;;;;;;;;;5062165;28;20462;-87
2022/05/20 06:05:07;;;;;;;4.63;3.20;;;;;;;;;;5045520;28;20414;-87
2022/05/20 06:07:33;;;;;;;3.67;2.70;;;;;;;;;;5062513;28;20878;-86
2022/05/20 06:09:59;;;;;;;5.10;2.70;;;;;;;;;;5063453;28;20424;-85
2022/05/20 06:12:25;;;;;;;3.73;2.77;;;;;;;;;;5048472;28;20449;-86
2022/05/20 06:14:51;;;;;;;5.10;3.10;;;;;;;;;;5064288;28;20804;-86
2022/05/20 06:17:17;;;;;;;6.47;3.50;;;;;;;;;;5063026;28;20413;-86
2022/05/20 06:19:43;;;;;;;4.20;2.80;;;;;;;;;;5061836;28;20412;-85
2022/05/20 06:22:10;;;;;;;4.67;2.90;;;;;;;;;;5062140;28;20402;-85
2022/05/20 06:24:37;;;;;;;5.90;3.47;;;;;;;;;;5042644;28;20413;-86
2022/05/20 06:27:03;;;;;;;5.10;3.00;;;;;;;;;;5043471;28;20453;-87
2022/05/20 06:29:29;;;;;;;6.20;3.30;;;;;;;;;;5062032;28;20471;-86
2022/05/20 06:31:55;;;;;;;6.73;2.73;;;;;;;;;;5044205;28;20455;-85
2022/05/20 06:34:22;;;;;;;6.77;3.00;;;;;;;;;;5043824;28;20425;-83
2022/05/20 06:39:51;;;;;;;3.57;2.57;;;;;;;;;;5062052;28;20774;-88
2022/05/20 06:42:19;;;;;;;3.73;2.60;;;;;;;;;;5064563;28;20471;-86
2022/05/20 06:44:45;;;;;;;3.30;2.77;;;;;;;;;;5065969;28;20463;-84
2022/05/20 06:47:12;;;;;;;4.90;2.47;;;;;;;;;;5063600;28;20429;-86
2022/05/20 06:49:38;;;;;;;5.77;2.80;;;;;;;;;;5045750;28;20463;-85
2022/05/20 06:52:04;;;;;;;5.07;2.73;;;;;;;;;;5062993;28;20449;-83
2022/05/20 06:54:30;;;;;;;3.50;2.80;;;;;;;;;;5044211;28;20976;-84
2022/05/20 06:56:56;;;;;;;3.93;2.67;;;;;;;;;;5060463;28;20952;-81
2022/05/20 06:59:23;;;;;;;3.37;2.77;;;;;;;;;;5041608;28;20401;-84
2022/05/20 07:01:49;;;;;;;4.03;2.40;;;;;;;;;;5041290;28;20413;-86
2022/05/20 07:04:15;;;;;;;4.07;2.90;;;;;;;;;;5044024;28;20425;-85
2022/05/20 07:06:41;;;;;;;3.47;2.70;;;;;;;;;;5064881;28;20429;-87
2022/05/20 07:09:08;;;;;;;6.63;3.10;;;;;;;;;;5044834;28;20429;-86
2022/05/20 07:11:35;;;;;;;3.20;2.23;;;;;;;;;;5060893;28;20439;-86
2022/05/20 07:14:02;;;;;;;3.70;2.60;;;;;;;;;;5062423;28;20413;-85
2022/05/20 07:16:29;;;;;;;4.00;3.03;;;;;;;;;;5063251;28;20441;-85
2022/05/20 07:18:56;;;;;;;5.20;2.63;;;;;;;;;;5039987;28;20460;-85
2022/05/20 07:21:22;;;;;;;4.67;2.73;;;;;;;;;;5049312;28;20452;-84
2022/05/20 07:23:48;;;;;;;3.93;3.10;;;;;;;;;;5054983;28;20526;-88
2022/05/20 07:26:16;;;;;;;4.90;2.67;;;;;;;;;;5042853;28;21064;-87
2022/05/20 07:28:42;;;;;;;9.50;3.23;;;;;;;;;;5043805;28;20417;-86
2022/05/20 07:31:08;;;;;;;4.80;2.50;;;;;;;;;;5042696;28;20832;-85
2022/05/20 07:33:37;;;;;;;4.47;3.13;;;;;;;;;;5042309;28;20453;-86
2022/05/20 07:36:03;;;;;;;4.50;2.90;;;;;;;;;;5051620;28;20450;-86
2022/05/20 07:38:29;;;;;;;8.10;2.73;;;;;;;;;;5030013;28;20502;-85
2022/05/20 07:40:56;;;;;;;6.27;3.00;;;;;;;;;;5054527;28;20496;-86
2022/05/20 07:43:24;;;;;;;3.93;2.80;;;;;;;;;;5062631;28;20429;-86
2022/05/20 07:45:51;;;;;;;7.10;3.23;;;;;;;;;;5071966;28;20441;-85
2022/05/20 07:48:17;;;;;;;4.40;2.50;;;;;;;;;;5060629;28;20422;-85
2022/05/20 07:50:45;;;;;;;3.67;3.07;;;;;;;;;;5035338;28;20849;-83
2022/05/20 07:53:21;;;;;;;3.33;2.63;;;;;;;;;;5051983;28;20465;-86
2022/05/20 07:55:55;;;;;;;5.87;2.93;;;;;;;;;;5058198;28;20431;-86
2022/05/20 07:58:25;;;;;;;4.33;3.00;;;;;;;;;;5038833;28;20437;-86
2022/05/20 08:00:51;;;;;;;3.73;2.87;;;;;;;;;;5048926;28;20426;-86
2022/05/20 08:04:52;;;;;;;5.03;3.30;;;;;;;;;;5041259;28;20877;-86
2022/05/20 08:06:03;;;;;;;3.40;2.50;;;;;;;;;;5056499;28;20461;-87
2022/05/20 08:08:30;;;;;;;6.57;3.00;;;;;;;;;;5056577;28;20516;-86
2022/05/20 08:10:56;;;;;;;3.53;2.90;;;;;;;;;;5060050;28;20412;-87
2022/05/20 08:13:22;;;;;;;4.10;2.60;;;;;;;;;;5058531;28;20457;-87
2022/05/20 08:15:49;;;;;;;8.37;3.50;;;;;;;;;;5066716;28;20440;-85
2022/05/20 08:18:17;;;;;;;4.80;2.63;;;;;;;;;;5041995;28;20417;-86
2022/05/20 08:20:43;;;;;;;3.13;2.70;;;;;;;;;;5036580;28;20458;-88
2022/05/20 08:23:10;;;;;;;4.43;3.27;;;;;;;;;;5030281;28;20437;-87
2022/05/20 08:25:39;;;;;;;5.03;3.00;;;;;;;;;;5033708;28;20517;-85
2022/05/20 08:28:06;;;;;;;4.63;2.73;;;;;;;;;;5060301;28;20463;-86
2022/05/20 08:30:32;;;;;;;4.20;3.00;;;;;;;;;;5063148;28;20489;-85
2022/05/20 08:32:58;;;;;;;4.50;2.57;;;;;;;;;;5061649;28;20461;-86
2022/05/20 08:35:26;;;;;;;4.70;3.00;;;;;;;;;;5065900;28;20433;-85
2022/05/20 08:37:52;;;;;;;4.23;3.50;;;;;;;;;;5061962;28;20506;-85
2022/05/20 08:40:20;;;;;;;3.27;2.40;;;;;;;;;;5062004;28;20439;-86
2022/05/20 08:42:47;;;;;;;3.77;2.73;;;;;;;;;;5039243;28;20449;-86
2022/05/20 08:45:14;;;;;;;5.10;3.30;;;;;;;;;;5036205;28;20460;-87
2022/05/20 08:47:42;;;;;;;6.03;2.70;;;;;;;;;;5038220;28;21116;-85
2022/05/20 08:50:14;;;;;;;3.90;2.80;;;;;;;;;;5035125;28;20426;-87
2022/05/20 08:52:41;;;;;;;4.63;2.77;;;;;;;;;;5041132;28;20468;-87
2022/05/20 08:55:08;;;;;;;4.43;2.57;;;;;;;;;;5057355;28;20436;-84
2022/05/20 08:57:34;;;;;;;3.53;2.77;;;;;;;;;;5044922;28;20449;-86
2022/05/20 09:00:09;;;;;;;5.90;2.40;;;;;;;;;;5058147;28;20433;-86
2022/05/20 09:02:36;;;;;;;5.10;3.10;;;;;;;;;;5055066;28;20901;-87
2022/05/20 09:05:12;;;;;;;7.60;4.37;;;;;;;;;;5058327;28;20963;-86
2022/05/20 09:07:57;;;;;;;4.20;3.30;;;;;;;;;;5049424;28;20460;-85
2022/05/20 09:10:36;;;;;;;3.20;2.60;;;;;;;;;;5058177;28;20441;-84
2022/05/20 09:13:10;;;;;;;5.30;3.17;;;;;;;;;;5046124;28;20464;-87
2022/05/20 09:15:46;;;;;;;6.13;2.93;;;;;;;;;;5061473;28;20432;-87
2022/05/20 09:18:12;;;;;;;4.83;2.90;;;;;;;;;;5058905;28;20453;-87
2022/05/20 09:20:49;;;;;;;5.53;2.90;;;;;;;;;;5062046;28;20407;-87
2022/05/20 09:23:20;;;;;;;4.23;2.43;;;;;;;;;;5043582;28;20418;-86
2022/05/20 09:25:47;;;;;;;4.40;3.03;;;;;;;;;;5041062;28;20429;-87
2022/05/20 09:28:23;;;;;;;4.57;3.10;;;;;;;;;;5040935;28;20422;-85
2022/05/20 09:30:51;;;;;;;5.70;2.80;;;;;;;;;;5036851;28;21062;-86
2022/05/20 09:33:25;;;;;;;5.27;2.90;;;;;;;;;;5045504;28;20500;-87
2022/05/20 09:35:58;;;;;;;7.00;2.97;;;;;;;;;;5060735;28;20436;-88
2022/05/20 09:38:33;;;;;;;5.67;3.43;;;;;;;;;;5063212;28;20870;-87
2022/05/20 09:41:00;;;;;;;8.37;3.10;;;;;;;;;;5059487;28;20425;-85
2022/05/20 09:43:28;;;;;;;4.20;2.87;;;;;;;;;;5055089;28;20436;-87
2022/05/20 09:45:55;;;;;;;4.90;2.97;;;;;;;;;;5036460;28;20453;-86
2022/05/20 09:48:20;;;;;;;7.00;3.30;;;;;;;;;;5060810;28;20421;-85
2022/05/20 09:51:05;;;;;;;6.70;2.93;;;;;;;;;;5047033;28;20433;-87
2022/05/20 09:53:36;;;;;;;4.60;3.00;;;;;;;;;;5062182;28;20465;-85
2022/05/20 09:56:21;;;;;;;5.10;3.40;;;;;;;;;;5062848;28;20817;-86
2022/05/20 09:59:05;;;;;;;7.83;2.93;;;;;;;;;;5062232;28;20426;-86
2022/05/20 10:01:32;;;;;;;4.60;3.00;;;;;;;;;;5063409;28;20460;-85
2022/05/20 10:04:01;;;;;;;5.43;3.27;;;;;;;;;;5045058;28;20429;-86
2022/05/20 10:06:31;;;;;;;5.83;3.27;;;;;;;;;;5030844;28;20445;-85
2022/05/20 10:08:57;;;;;;;11.43;3.87;;;;;;;;;;5041723;28;20444;-88
2022/05/20 10:11:26;;;;;;;6.73;3.27;;;;;;;;;;5063729;28;20460;-86
2022/05/20 10:13:56;;;;;;;3.97;2.83;;;;;;;;;;5064994;28;20889;-87
2022/05/20 10:16:29;;;;;;;7.97;3.30;;;;;;;;;;5064158;28;20482;-84
2022/05/20 10:19:16;;;;;;;5.87;3.00;;;;;;;;;;5063912;28;20401;-87
2022/05/20 10:22:01;;;;;;;5.73;3.50;;;;;;;;;;5064072;28;20400;-87
2022/05/20 10:24:27;;;;;;;6.73;3.50;;;;;;;;;;5063940;28;20959;-86
2022/05/20 10:26:53;;;;;;;5.47;3.17;;;;;;;;;;5066079;28;20472;-87
2022/05/20 10:32:37;;;;;;;5.43;3.20;;;;;;;;;;5015583;28;20538;-86
2022/05/20 10:35:30;;;;;;;4.10;2.87;;;;;;;;;;5043025;28;20433;-87
2022/05/20 10:38:02;;;;;;;4.50;3.23;;;;;;;;;;5007701;28;20419;-87
2022/05/20 10:40:40;;;;;;;4.33;3.90;;;;;;;;;;5036200;28;20482;-86
2022/05/20 10:43:14;;;;;;;5.60;3.10;;;;;;;;;;5012645;28;20427;-85
2022/05/20 10:48:44;;;;;;;5.27;3.43;;;;;;;;;;5038300;28;20433;-85
2022/05/20 10:51:13;;;;;;;5.83;3.20;;;;;;;;;;5035737;28;20528;-85
2022/05/20 10:53:40;;;;;;;4.33;3.37;;;;;;;;;;5009802;28;20593;-87
2022/05/20 10:56:24;;;;;;;5.37;3.13;;;;;;;;;;5030149;28;20435;-88
2022/05/20 10:59:18;;;;;;;6.80;3.50;;;;;;;;;;5029662;28;20427;-87
2022/05/20 11:01:53;;;;;;;5.37;2.97;;;;;;;;;;5015445;28;20431;-88
2022/05/20 11:04:37;;;;;;;6.70;3.20;;;;;;;;;;5013712;28;20435;-88
2022/05/20 11:07:22;;;;;;;7.40;3.43;;;;;;;;;;5027525;28;20805;-87
2022/05/20 11:10:00;;;;;;;5.13;3.47;;;;;;;;;;5029320;28;20466;-87
2022/05/20 11:12:35;;;;;;;6.10;2.50;;;;;;;;;;5031034;28;20476;-88
2022/05/20 11:15:26;;;;;;;6.23;3.77;;;;;;;;;;5038357;28;20426;-86
2022/05/20 11:18:18;;;;;;;6.83;3.20;;;;;;;;;;5017127;28;20431;-86
2022/05/20 11:20:53;;;;;;;6.33;3.30;;;;;;;;;;5023197;28;20868;-85
2022/05/20 11:23:25;;;;;;;8.07;3.20;;;;;;;;;;5027007;28;20430;-88
2022/05/20 11:25:51;;;;;;;3.87;2.97;;;;;;;;;;5039665;28;20470;-85
2022/05/20 11:28:20;;;;;;;5.10;3.23;;;;;;;;;;5019916;28;20427;-87
2022/05/20 11:30:49;;;;;;;5.20;3.40;;;;;;;;;;5020857;28;20459;-86
2022/05/20 11:33:36;;;;;;;6.93;2.90;;;;;;;;;;5036195;28;20466;-87
2022/05/20 11:36:06;;;;;;;5.40;2.80;;;;;;;;;;5031632;28;20434;-86
2022/05/20 11:38:58;;;;;;;8.77;3.63;;;;;;;;;;5046034;28;20423;-86
2022/05/20 11:41:46;;;;;;;3.80;3.03;;;;;;;;;;5014785;28;20435;-85
2022/05/20 11:44:18;;;;;;;8.23;2.93;;;;;;;;;;5042484;28;20435;-86
2022/05/20 11:46:53;;;;;;;6.60;3.17;;;;;;;;;;5045006;28;20415;-85
2022/05/20 11:49:41;;;;;;;5.20;2.97;;;;;;;;;;5011796;28;20480;-85
2022/05/20 11:52:51;;;;;;;8.77;4.07;;;;;;;;;;5039741;28;20485;-84
2022/05/20 11:55:32;;;;;;;;;;;;;;;;;;;;;
2022/05/20 11:58:01;;;;;;;3.13;2.67;;;;;;;;;;5024291;28;20526;-87
2022/05/20 12:01:07;;;;;;;6.30;3.10;;;;;;;;;;5024860;28;20465;-84
2022/05/20 12:06:22;;;;;;;5.40;3.40;;;;;;;;;;5029602;28;20418;-85
2022/05/20 12:08:54;;;;;;;5.20;2.97;;;;;;;;;;5019911;28;20443;-84
2022/05/20 12:14:17;;;;;;;5.40;3.07;;;;;;;;;;5032402;28;20519;-85
2022/05/20 12:17:29;;;;;;;;;;;;;;;;;;;;;
2022/05/20 12:25:50;;;;;;;7.43;3.73;;;;;;;;;;5017530;28;20414;-86
2022/05/20 12:31:25;;;;;;;7.57;2.90;;;;;;;;;;5037455;28;20474;-87
2022/05/20 12:34:05;;;;;;;6.10;3.67;;;;;;;;;;5009609;28;20471;-86
2022/05/20 12:36:34;;;;;;;6.00;3.90;;;;;;;;;;5033902;28;20458;-85
2022/05/20 12:42:27;;;;;;;11.43;3.40;;;;;;;;;;5017427;28;20483;-86
2022/05/20 12:47:46;;;;;;;8.13;3.70;;;;;;;;;;5030198;28;20938;-86
2022/05/20 12:50:18;;;;;;;7.13;4.43;;;;;;;;;;5023601;23;20482;-87
2022/05/20 12:53:06;;;;;;;5.50;3.50;;;;;;;;;;5019399;28;20454;-87
2022/05/20 12:55:46;;;;;;;7.10;3.47;;;;;;;;;;5037834;28;20422;-87
2022/05/20 13:01:27;;;;;;;4.27;2.80;;;;;;;;;;5047769;28;20430;-86
2022/05/20 13:04:09;;;;;;;4.10;3.47;;;;;;;;;;5032900;28;20427;-86
2022/05/20 13:12:13;;;;;;;7.60;3.70;;;;;;;;;;5041696;28;20481;-86
2022/05/20 13:15:22;;;;;;;;;;;;;;;;;;;;;
2022/05/20 13:27:41;;;;;;;6.10;3.17;;;;;;;;;;4943863;28;20422;-83
2022/05/20 13:33:38;;;;;;;;;;;;;;;;;;;;;
2022/05/20 13:36:39;;;;;;;3.80;2.53;;;;;;;;;;5017836;28;20506;-87
2022/05/20 13:41:49;;;;;;;7.87;3.03;;;;;;;;;;5281048;23;20482;-85
2022/05/20 13:50:43;;;;;;;6.03;3.30;;;;;;;;;;4963374;28;21090;-86
2022/05/20 13:53:09;;;;;;;7.93;3.50;;;;;;;;;;5020625;28;20463;-86
2022/05/20 13:56:04;;;;;;;8.67;3.47;;;;;;;;;;5002108;28;20442;-86
2022/05/20 13:58:31;;;;;;;7.10;2.73;;;;;;;;;;4937450;28;20487;-86
2022/05/20 14:01:04;;;;;;;5.43;2.63;;;;;;;;;;5023958;28;20450;-87
2022/05/20 14:03:34;;;;;;;5.77;2.90;;;;;;;;;;5022912;28;20419;-85
2022/05/20 14:06:03;;;;;;;4.80;3.20;;;;;;;;;;5014668;28;20450;-86
2022/05/20 14:08:39;;;;;;;5.23;3.00;;;;;;;;;;5021375;28;20438;-87
2022/05/20 14:11:21;;;;;;;10.67;3.30;;;;;;;;;;5031274;28;20455;-87
2022/05/20 14:13:50;;;;;;;4.80;3.20;;;;;;;;;;5026431;28;20432;-87
2022/05/20 14:16:36;;;;;;;4.37;2.80;;;;;;;;;;5010664;28;20429;-86
2022/05/20 14:19:16;;;;;;;5.07;2.77;;;;;;;;;;5008168;28;20423;-87
2022/05/20 14:21:45;;;;;;;6.13;3.03;;;;;;;;;;5027372;28;20441;-87
2022/05/20 14:24:34;;;;;;;5.43;3.37;;;;;;;;;;5024165;28;20922;-86
2022/05/20 14:27:01;;;;;;;4.27;3.00;;;;;;;;;;5019350;28;20434;-89
2022/05/20 14:29:31;;;;;;;6.20;3.13;;;;;;;;;;5024425;28;20470;-87
2022/05/20 14:32:07;;;;;;;5.33;3.03;;;;;;;;;;5025326;28;20439;-86
2022/05/20 14:34:39;;;;;;;9.80;3.20;;;;;;;;;;5022379;28;20536;-86
2022/05/20 14:37:18;;;;;;;3.70;2.80;;;;;;;;;;5018075;28;20531;-85
2022/05/20 14:39:49;;;;;;;4.23;3.00;;;;;;;;;;5052644;23;20533;-86
2022/05/20 14:42:27;;;;;;;6.13;3.50;;;;;;;;;;5038889;28;20449;-87
2022/05/20 14:45:06;;;;;;;4.27;3.00;;;;;;;;;;5033911;28;20418;-88
2022/05/20 14:47:53;;;;;;;9.17;3.00;;;;;;;;;;5040975;28;20431;-87
2022/05/20 14:50:33;;;;;;;8.70;2.97;;;;;;;;;;5004931;28;20798;-86
2022/05/20 14:53:09;;;;;;;4.60;3.40;;;;;;;;;;5004084;28;20510;-88
2022/05/20 14:55:46;;;;;;;5.80;3.10;;;;;;;;;;5006483;28;20423;-87
2022/05/20 14:58:25;;;;;;;5.20;2.73;;;;;;;;;;5012775;28;20404;-87
2022/05/20 15:00:56;;;;;;;4.43;2.83;;;;;;;;;;5020758;28;20466;-87
2022/05/20 15:03:23;;;;;;;4.07;2.73;;;;;;;;;;5022115;28;20504;-88
2022/05/20 15:06:26;;;;;;;6.57;2.70;;;;;;;;;;5021434;28;20826;-86
2022/05/20 15:08:52;;;;;;;5.77;2.80;;;;;;;;;;5009784;28;20438;-85
2022/05/20 15:11:21;;;;;;;7.00;3.00;;;;;;;;;;5001220;28;20443;-87
2022/05/20 15:13:49;;;;;;;8.07;3.47;;;;;;;;;;5016141;28;20485;-85
2022/05/20 15:16:15;;;;;;;3.43;2.80;;;;;;;;;;5017197;28;20431;-85
2022/05/20 15:18:41;;;;;;;5.10;2.80;;;;;;;;;;5017325;28;20437;-87
2022/05/20 15:21:11;;;;;;;5.13;3.00;;;;;;;;;;5018208;28;20443;-88
2022/05/20 15:23:38;;;;;;;6.43;3.30;;;;;;;;;;5010578;28;20486;-87
2022/05/20 15:26:09;;;;;;;5.27;2.70;;;;;;;;;;5009930;28;20432;-88
2022/05/20 15:28:47;;;;;;;3.80;2.77;;;;;;;;;;5007086;28;20570;-88
2022/05/20 15:37:05;;;;;;;4.47;3.10;;;;;;;;;;5010175;28;20429;-86
2022/05/20 15:39:32;;;;;;;4.53;2.60;;;;;;;;;;4991588;28;21097;-84
2022/05/20 15:41:59;;;;;;;8.83;3.20;;;;;;;;;;5007686;28;20447;-86
2022/05/20 15:44:26;;;;;;;4.23;2.90;;;;;;;;;;5015223;28;20430;-86
2022/05/20 15:46:52;;;;;;;5.10;2.60;;;;;;;;;;5002398;28;20503;-87
2022/05/20 15:49:18;;;;;;;7.23;2.97;;;;;;;;;;5018967;28;20403;-86
2022/05/20 15:51:47;;;;;;;6.67;3.70;;;;;;;;;;5018411;28;20442;-88
2022/05/20 15:54:14;;;;;;;4.33;3.30;;;;;;;;;;5026727;28;20481;-88
2022/05/20 15:56:40;;;;;;;4.37;3.07;;;;;;;;;;5018992;28;20518;-88
2022/05/20 15:59:07;;;;;;;7.37;3.20;;;;;;;;;;5021468;28;20426;-88
2022/05/20 16:01:33;;;;;;;5.33;2.67;;;;;;;;;;5003704;28;20419;-88
2022/05/20 16:04:00;;;;;;;6.83;3.30;;;;;;;;;;5004817;28;20466;-87
2022/05/20 16:06:27;;;;;;;5.13;2.70;;;;;;;;;;5004472;28;20450;-87
2022/05/20 16:08:56;;;;;;;7.07;3.40;;;;;;;;;;5022803;28;20422;-83
2022/05/20 16:11:23;;;;;;;4.23;2.87;;;;;;;;;;5004285;28;20438;-87
2022/05/20 16:13:49;;;;;;;8.83;2.83;;;;;;;;;;5022290;28;20411;-86
2022/05/20 16:16:15;;;;;;;9.80;4.07;;;;;;;;;;5022969;28;20412;-88
2022/05/20 16:18:41;;;;;;;4.67;3.23;;;;;;;;;;5021336;28;20456;-87
2022/05/20 16:21:11;;;;;;;4.57;2.63;;;;;;;;;;5024582;28;20515;-86
2022/05/20 16:23:39;;;;;;;4.30;2.73;;;;;;;;;;5024126;28;20455;-87
2022/05/20 16:26:07;;;;;;;5.10;3.10;;;;;;;;;;5005381;28;20430;-87
2022/05/20 16:28:33;;;;;;;9.27;3.13;;;;;;;;;;5005725;28;20438;-86
2022/05/20 16:30:59;;;;;;;5.50;2.80;;;;;;;;;;5021725;28;20423;-87
2022/05/20 16:33:26;;;;;;;4.90;3.13;;;;;;;;;;5030798;22;21026;-84